Time;durP1;ratioP1;P1;durP2;ratioP2;P2;SDS_P1;SDS_P2;PMS_P1;PMS_P2;Temp;Humidity;BMP_temperature;BMP_pressure;BME280_temperature;BME280_humidity;BME280_pressure;Samples;Min_cycle;Max_cycle;Signal;HPM_P1;HPM_P2
2021/12/10 00:01:10;;;;;;;54.07;30.20;;;1.60;99.90;;;;;;5039476;28;20203;-62
2021/12/10 00:03:50;;;;;;;58.22;29.67;;;1.60;99.90;;;;;;5040493;28;20194;-57
2021/12/10 00:06:19;;;;;;;60.72;31.25;;;1.60;99.90;;;;;;5036253;28;20175;-61
2021/12/10 00:08:51;;;;;;;63.55;30.25;;;1.60;99.90;;;;;;5031001;28;20590;-62
2021/12/10 00:11:26;;;;;;;58.80;29.50;;;1.60;99.90;;;;;;5028973;28;20190;-60
2021/12/10 00:13:53;;;;;;;62.17;29.80;;;1.60;99.90;;;;;;5032126;28;20501;-61
2021/12/10 00:16:19;;;;;;;61.58;30.02;;;1.60;99.90;;;;;;5042711;28;20290;-59
2021/12/10 00:18:53;;;;;;;56.38;29.50;;;1.60;99.90;;;;;;5035730;28;20316;-60
2021/12/10 00:21:24;;;;;;;53.10;29.08;;;1.70;99.90;;;;;;5037389;28;20214;-62
2021/12/10 00:23:51;;;;;;;54.63;29.73;;;1.70;99.90;;;;;;5036039;28;20187;-61
2021/12/10 00:26:20;;;;;;;49.47;26.17;;;1.70;99.90;;;;;;5039770;28;20187;-60
2021/12/10 00:28:47;;;;;;;54.83;29.95;;;1.60;99.90;;;;;;5033036;28;20179;-60
2021/12/10 00:32:01;;;;;;;51.30;27.55;;;1.60;99.90;;;;;;5041201;28;20288;-61
2021/12/10 00:34:15;;;;;;;46.92;26.55;;;1.60;99.90;;;;;;5024610;28;20548;-61
2021/12/10 00:36:41;;;;;;;54.17;26.48;;;1.60;99.90;;;;;;5032562;28;20278;-61
2021/12/10 00:39:11;;;;;;;52.72;26.95;;;1.70;99.90;;;;;;5033862;28;20273;-60
2021/12/10 00:41:37;;;;;;;46.30;25.25;;;1.70;99.90;;;;;;5032236;28;20219;-60
2021/12/10 00:44:04;;;;;;;45.38;25.52;;;1.70;99.90;;;;;;5031835;28;20187;-61
2021/12/10 00:46:30;;;;;;;42.45;24.75;;;1.70;99.90;;;;;;5039913;28;20191;-62
2021/12/10 00:48:56;;;;;;;42.53;25.80;;;1.60;99.90;;;;;;5035223;28;20264;-68
2021/12/10 00:51:21;;;;;;;43.77;24.93;;;1.60;99.90;;;;;;5032077;28;20227;-61
2021/12/10 00:53:48;;;;;;;44.53;24.50;;;1.60;99.90;;;;;;5039689;28;20186;-54
2021/12/10 00:56:13;;;;;;;42.45;25.17;;;1.60;99.90;;;;;;5033436;28;20481;-61
2021/12/10 00:58:41;;;;;;;41.70;24.70;;;1.60;99.90;;;;;;5032276;28;20599;-61
2021/12/10 01:01:16;;;;;;;43.65;26.10;;;1.60;99.90;;;;;;5029816;28;20474;-51
2021/12/10 01:03:50;;;;;;;39.60;23.52;;;1.70;99.90;;;;;;5033715;28;20636;-60
2021/12/10 01:06:17;;;;;;;44.35;24.77;;;1.70;99.90;;;;;;5037011;28;20249;-61
2021/12/10 01:08:46;;;;;;;40.22;23.17;;;1.70;99.90;;;;;;5035270;28;20191;-60
2021/12/10 01:11:26;;;;;;;40.35;22.77;;;1.70;99.90;;;;;;5036345;28;20917;-60
2021/12/10 01:13:57;;;;;;;46.90;24.27;;;1.70;99.90;;;;;;5018058;28;20585;-61
2021/12/10 01:27:33;;;;;;;42.10;23.15;;;1.70;99.90;;;;;;5030324;28;20282;-62
2021/12/10 01:30:25;;;;;;;38.45;22.75;;;1.70;99.90;;;;;;5029945;28;20183;-62
2021/12/10 01:33:02;;;;;;;40.35;22.05;;;1.70;99.90;;;;;;5031564;28;20183;-65
2021/12/10 01:35:34;;;;;;;38.95;22.25;;;1.80;99.90;;;;;;5034827;28;20698;-62
2021/12/10 01:38:02;;;;;;;39.40;22.58;;;1.80;99.90;;;;;;5031344;28;20229;-61
2021/12/10 01:40:28;;;;;;;38.92;23.80;;;1.80;99.90;;;;;;5033838;28;20210;-59
2021/12/10 01:43:04;;;;;;;36.38;22.75;;;1.70;99.90;;;;;;5031167;28;20556;-60
2021/12/10 01:45:32;;;;;;;34.95;21.27;;;1.70;99.90;;;;;;5032479;28;20285;-60
2021/12/10 01:48:03;;;;;;;36.53;21.65;;;1.70;99.90;;;;;;5031448;28;20221;-61
2021/12/10 01:50:30;;;;;;;37.60;22.90;;;1.70;99.90;;;;;;5034008;28;20574;-61
2021/12/10 01:53:01;;;;;;;42.95;23.15;;;1.70;99.90;;;;;;5036375;28;20554;-61
2021/12/10 01:55:29;;;;;;;37.22;21.63;;;1.80;99.90;;;;;;5033963;28;20183;-64
2021/12/10 01:57:56;;;;;;;41.42;22.08;;;1.80;99.90;;;;;;5030987;28;20198;-61
2021/12/10 02:00:26;;;;;;;41.17;23.73;;;1.80;99.90;;;;;;5033047;28;20213;-61
2021/12/10 02:02:52;;;;;;;42.20;23.00;;;1.80;99.90;;;;;;5033295;28;20609;-60
2021/12/10 02:05:18;;;;;;;38.33;21.80;;;1.80;99.90;;;;;;5034455;28;20224;-60
2021/12/10 02:07:46;;;;;;;38.30;22.45;;;1.80;99.90;;;;;;5031622;28;20637;-59
2021/12/10 02:10:18;;;;;;;37.65;22.35;;;1.80;99.90;;;;;;5032639;28;20653;-60
2021/12/10 02:12:45;;;;;;;38.25;21.95;;;1.80;99.90;;;;;;5034456;28;20190;-60
2021/12/10 02:15:12;;;;;;;36.45;21.75;;;1.90;99.90;;;;;;5030969;28;20659;-61
2021/12/10 02:17:46;;;;;;;34.65;20.27;;;1.80;99.90;;;;;;5031471;28;20194;-61
2021/12/10 02:20:17;;;;;;;34.92;21.45;;;1.90;99.90;;;;;;5026479;28;20206;-61
2021/12/10 02:22:44;;;;;;;40.63;21.88;;;1.90;99.90;;;;;;5032022;28;20683;-55
2021/12/10 02:25:13;;;;;;;36.20;21.63;;;1.90;99.90;;;;;;5032592;28;20271;-61
2021/12/10 02:27:38;;;;;;;34.75;20.60;;;1.90;99.90;;;;;;5026070;28;20276;-61
2021/12/10 02:30:08;;;;;;;34.00;22.23;;;1.90;99.90;;;;;;5027500;28;20223;-55
2021/12/10 02:32:34;;;;;;;34.53;20.75;;;1.90;99.90;;;;;;5029944;28;20195;-61
2021/12/10 02:34:59;;;;;;;34.75;20.55;;;1.90;99.90;;;;;;5050313;28;20198;-61
2021/12/10 02:37:25;;;;;;;42.47;21.83;;;1.90;99.90;;;;;;5031473;28;20723;-62
2021/12/10 02:39:52;;;;;;;35.27;20.70;;;1.80;99.90;;;;;;5062996;28;20548;-61
2021/12/10 02:42:18;;;;;;;35.58;19.98;;;1.70;99.90;;;;;;5048165;28;20193;-61
2021/12/10 02:44:44;;;;;;;34.53;21.13;;;1.70;99.90;;;;;;5050125;28;20190;-52
2021/12/10 02:47:09;;;;;;;34.83;19.57;;;1.60;99.90;;;;;;5058011;28;20612;-52
2021/12/10 02:49:36;;;;;;;37.60;20.60;;;1.60;99.90;;;;;;5050862;28;20413;-54
2021/12/10 02:52:02;;;;;;;36.30;21.52;;;1.60;99.90;;;;;;5055727;28;20186;-52
2021/12/10 02:54:35;;;;;;;34.80;20.67;;;1.60;99.90;;;;;;5069178;28;20190;-53
2021/12/10 02:57:05;;;;;;;36.22;20.88;;;1.60;99.90;;;;;;5055747;28;20190;-51
2021/12/10 02:59:31;;;;;;;36.78;21.88;;;1.60;99.90;;;;;;5050457;28;20170;-50
2021/12/10 03:01:57;;;;;;;32.80;20.90;;;1.60;99.90;;;;;;5062948;28;20205;-53
2021/12/10 03:04:22;;;;;;;36.67;20.97;;;1.70;99.90;;;;;;5069845;28;20158;-50
2021/12/10 03:06:53;;;;;;;36.63;19.43;;;1.60;99.90;;;;;;5060687;28;20439;-50
2021/12/10 03:09:21;;;;;;;32.88;19.83;;;1.70;99.90;;;;;;5049722;28;20566;-50
2021/12/10 03:11:49;;;;;;;32.50;20.55;;;1.70;99.90;;;;;;5060784;28;20189;-51
2021/12/10 03:14:21;;;;;;;39.35;21.35;;;1.60;99.90;;;;;;5032362;28;20186;-49
2021/12/10 03:16:49;;;;;;;36.70;20.88;;;1.50;99.90;;;;;;5066518;28;20200;-53
2021/12/10 03:19:15;;;;;;;32.72;20.85;;;1.50;99.90;;;;;;5049588;28;20181;-52
2021/12/10 03:21:44;;;;;;;34.58;19.85;;;1.40;99.90;;;;;;5060592;28;20213;-50
2021/12/10 03:24:12;;;;;;;33.53;20.25;;;1.40;99.90;;;;;;5049098;28;20174;-52
2021/12/10 03:26:37;;;;;;;36.22;20.92;;;1.40;99.90;;;;;;5056874;28;20194;-58
2021/12/10 03:29:04;;;;;;;33.13;20.40;;;1.30;99.90;;;;;;5053809;28;20182;-48
2021/12/10 03:31:30;;;;;;;32.65;19.20;;;1.40;99.90;;;;;;5050366;28;20699;-50
2021/12/10 03:33:56;;;;;;;29.50;19.15;;;1.40;99.90;;;;;;5049011;28;20190;-57
2021/12/10 03:36:22;;;;;;;32.33;20.35;;;1.50;99.90;;;;;;5057747;28;20177;-52
2021/12/10 03:38:49;;;;;;;31.57;21.10;;;1.50;99.90;;;;;;5052851;28;20186;-52
2021/12/10 03:41:15;;;;;;;32.53;19.75;;;1.50;99.90;;;;;;5048756;28;20973;-57
2021/12/10 03:43:44;;;;;;;31.97;20.10;;;1.50;99.90;;;;;;5054292;28;20201;-51
2021/12/10 03:46:10;;;;;;;29.85;19.13;;;1.50;99.90;;;;;;5049029;28;20415;-50
2021/12/10 03:48:42;;;;;;;31.67;18.73;;;1.50;99.90;;;;;;5050339;28;20197;-48
2021/12/10 03:51:11;;;;;;;31.70;19.08;;;1.60;99.90;;;;;;5036608;28;20484;-51
2021/12/10 03:53:37;;;;;;;28.30;17.95;;;1.60;99.90;;;;;;5053227;28;20197;-49
2021/12/10 03:56:07;;;;;;;29.87;19.20;;;1.60;99.90;;;;;;5060518;28;20546;-49
2021/12/10 03:58:33;;;;;;;31.70;20.48;;;1.60;99.90;;;;;;5059473;28;20440;-53
2021/12/10 04:00:59;;;;;;;34.37;18.73;;;1.60;99.90;;;;;;5057033;28;20213;-48
2021/12/10 04:03:28;;;;;;;27.70;17.95;;;1.60;99.90;;;;;;5053631;28;20920;-54
2021/12/10 04:05:54;;;;;;;28.88;17.63;;;1.60;99.90;;;;;;5048340;28;20232;-51
2021/12/10 04:08:20;;;;;;;31.27;18.33;;;1.60;99.90;;;;;;5045815;28;20186;-53
2021/12/10 04:10:46;;;;;;;29.27;19.25;;;1.60;99.90;;;;;;5049639;28;20534;-50
2021/12/10 04:13:13;;;;;;;29.25;17.90;;;1.60;99.90;;;;;;5051317;28;20198;-49
2021/12/10 04:15:39;;;;;;;26.13;17.08;;;1.60;99.90;;;;;;5048477;28;20186;-47
2021/12/10 04:18:07;;;;;;;27.13;17.95;;;1.60;99.90;;;;;;5055189;28;20550;-57
2021/12/10 04:20:33;;;;;;;30.75;18.63;;;1.70;99.90;;;;;;5051851;28;20222;-52
2021/12/10 04:23:01;;;;;;;27.03;18.60;;;1.60;99.90;;;;;;5052335;28;20980;-47
2021/12/10 04:25:28;;;;;;;28.60;19.00;;;1.60;99.90;;;;;;5047524;28;20610;-47
2021/12/10 04:27:59;;;;;;;29.77;17.48;;;1.60;99.90;;;;;;5058176;28;20520;-49
2021/12/10 04:30:26;;;;;;;28.05;18.27;;;1.60;99.90;;;;;;5040274;28;20183;-51
2021/12/10 04:32:52;;;;;;;31.73;18.55;;;1.60;99.90;;;;;;5056448;28;20195;-50
2021/12/10 04:35:21;;;;;;;27.00;17.00;;;1.60;99.90;;;;;;5050994;28;20198;-47
2021/12/10 04:37:49;;;;;;;26.73;16.80;;;1.70;99.90;;;;;;5053120;28;20444;-50
2021/12/10 04:40:18;;;;;;;30.30;17.92;;;1.70;99.90;;;;;;5058463;28;20202;-49
2021/12/10 04:42:45;;;;;;;31.10;18.67;;;1.70;99.90;;;;;;5050716;28;20317;-47
2021/12/10 04:45:14;;;;;;;28.70;17.60;;;1.60;99.90;;;;;;5029601;28;20282;-50
2021/12/10 04:47:40;;;;;;;29.35;17.88;;;1.70;99.90;;;;;;5052929;28;20182;-53
2021/12/10 04:50:07;;;;;;;24.65;17.30;;;1.70;99.90;;;;;;5062967;28;20321;-53
2021/12/10 04:52:34;;;;;;;30.60;18.05;;;1.70;99.90;;;;;;5067188;28;20536;-49
2021/12/10 04:55:00;;;;;;;25.80;16.80;;;1.70;99.90;;;;;;5067777;28;20219;-51
2021/12/10 04:57:26;;;;;;;30.25;18.00;;;1.70;99.90;;;;;;5062391;28;20273;-52
2021/12/10 04:59:52;;;;;;;27.30;17.73;;;1.70;99.90;;;;;;5035144;28;20289;-49
2021/12/10 05:02:18;;;;;;;29.40;18.38;;;1.70;99.90;;;;;;5024276;28;20183;-51
2021/12/10 05:04:45;;;;;;;28.80;17.50;;;1.70;99.90;;;;;;5023917;28;20264;-53
2021/12/10 05:07:12;;;;;;;27.20;17.40;;;1.70;99.90;;;;;;5025053;28;20183;-51
2021/12/10 05:09:38;;;;;;;25.08;16.60;;;1.70;99.90;;;;;;5023696;28;20195;-50
2021/12/10 05:12:04;;;;;;;24.58;16.73;;;1.80;99.90;;;;;;5023590;28;20269;-50
2021/12/10 05:14:31;;;;;;;26.25;17.90;;;1.70;99.90;;;;;;5021978;28;20195;-51
2021/12/10 05:17:03;;;;;;;26.63;16.98;;;1.70;99.90;;;;;;5034239;28;20186;-54
2021/12/10 05:19:28;;;;;;;28.42;18.52;;;1.70;99.90;;;;;;5027593;28;20182;-49
2021/12/10 05:21:55;;;;;;;27.90;16.93;;;1.70;99.90;;;;;;5033081;28;20252;-50
2021/12/10 05:24:21;;;;;;;29.40;17.92;;;1.70;99.90;;;;;;5054999;28;20640;-52
2021/12/10 05:26:47;;;;;;;29.35;17.92;;;1.70;99.90;;;;;;5055935;28;20182;-49
2021/12/10 05:29:13;;;;;;;26.43;18.20;;;1.70;99.90;;;;;;5056099;28;20182;-54
2021/12/10 05:31:43;;;;;;;26.98;17.77;;;1.70;99.90;;;;;;5046210;28;20183;-50
2021/12/10 05:34:09;;;;;;;28.67;17.23;;;1.70;99.90;;;;;;5054060;28;20600;-52
2021/12/10 05:36:35;;;;;;;27.48;17.23;;;1.70;99.90;;;;;;5051093;28;20523;-57
2021/12/10 05:39:04;;;;;;;28.83;16.43;;;1.70;99.90;;;;;;5054613;28;20186;-53
2021/12/10 05:41:30;;;;;;;28.85;16.55;;;1.70;99.90;;;;;;5050218;28;20228;-51
2021/12/10 05:43:56;;;;;;;22.60;14.57;;;1.70;99.90;;;;;;5061969;28;20182;-51
2021/12/10 05:46:21;;;;;;;27.80;18.30;;;1.70;99.90;;;;;;5052719;28;20193;-49
2021/12/10 05:48:47;;;;;;;24.93;17.10;;;1.80;99.90;;;;;;5053517;28;20256;-48
2021/12/10 05:51:13;;;;;;;23.13;15.97;;;1.80;99.90;;;;;;5060714;28;20229;-51
2021/12/10 05:53:40;;;;;;;26.27;17.27;;;1.80;99.90;;;;;;5053714;28;20474;-50
2021/12/10 05:56:06;;;;;;;25.92;16.15;;;1.80;99.90;;;;;;5059480;28;20867;-47
2021/12/10 05:58:32;;;;;;;23.70;16.17;;;1.80;99.90;;;;;;5053126;28;20212;-48
2021/12/10 06:01:03;;;;;;;25.10;16.17;;;1.80;99.90;;;;;;5061741;28;20210;-47
2021/12/10 06:03:30;;;;;;;24.70;16.70;;;1.80;99.90;;;;;;5053912;28;20937;-51
2021/12/10 06:05:56;;;;;;;25.88;15.90;;;1.80;99.90;;;;;;5051467;28;20647;-51
2021/12/10 06:08:23;;;;;;;27.03;17.67;;;1.80;99.90;;;;;;5053701;28;20263;-50
2021/12/10 06:10:50;;;;;;;26.35;16.58;;;1.80;99.90;;;;;;5055097;28;20213;-52
2021/12/10 06:13:16;;;;;;;23.48;15.98;;;1.80;99.90;;;;;;5053663;28;20201;-52
2021/12/10 06:15:42;;;;;;;23.87;15.70;;;1.80;99.90;;;;;;5052985;28;20182;-47
2021/12/10 06:18:08;;;;;;;23.20;15.77;;;1.80;99.90;;;;;;5055942;28;20190;-49
2021/12/10 06:20:39;;;;;;;25.05;16.85;;;1.80;99.90;;;;;;5050127;28;20225;-50
2021/12/10 06:23:05;;;;;;;29.20;16.23;;;1.70;99.90;;;;;;5051129;28;20191;-51
2021/12/10 06:25:33;;;;;;;30.77;17.38;;;1.70;99.90;;;;;;5049431;28;20608;-49
2021/12/10 06:27:59;;;;;;;26.08;17.42;;;1.70;99.90;;;;;;5054297;28;20187;-46
2021/12/10 06:30:31;;;;;;;26.50;17.67;;;1.60;99.90;;;;;;5054765;28;20191;-48
2021/12/10 06:32:59;;;;;;;26.52;17.80;;;1.70;99.90;;;;;;5049686;28;20908;-51
2021/12/10 06:35:28;;;;;;;26.40;16.30;;;1.70;99.90;;;;;;5050314;28;20190;-49
2021/12/10 06:37:54;;;;;;;26.55;17.42;;;1.70;99.90;;;;;;5069420;28;20271;-47
2021/12/10 06:40:24;;;;;;;27.33;17.08;;;1.70;99.90;;;;;;5050646;28;20210;-51
2021/12/10 06:42:50;;;;;;;24.73;16.00;;;1.80;99.90;;;;;;5048013;28;20194;-52
2021/12/10 06:45:18;;;;;;;24.77;15.77;;;1.80;99.90;;;;;;5049451;28;20909;-50
2021/12/10 06:47:47;;;;;;;21.30;16.42;;;1.80;99.90;;;;;;5049333;28;20190;-53
2021/12/10 06:50:15;;;;;;;25.40;18.30;;;1.80;99.90;;;;;;5049651;28;20225;-50
2021/12/10 06:52:41;;;;;;;28.23;17.38;;;1.70;99.90;;;;;;5049946;28;20234;-52
2021/12/10 06:55:07;;;;;;;27.30;18.60;;;1.70;99.90;;;;;;5060126;28;20548;-52
2021/12/10 06:57:34;;;;;;;29.95;16.75;;;1.70;99.90;;;;;;5050054;28;20863;-48
2021/12/10 07:00:00;;;;;;;25.90;16.35;;;1.70;99.90;;;;;;5054140;28;20190;-50
2021/12/10 07:02:26;;;;;;;27.47;18.83;;;1.70;99.90;;;;;;5053896;28;20734;-50
2021/12/10 07:04:52;;;;;;;27.40;17.40;;;1.70;99.90;;;;;;5035165;28;20456;-49
2021/12/10 07:07:17;;;;;;;25.17;16.87;;;1.70;99.90;;;;;;5049715;28;20186;-49
2021/12/10 07:09:43;;;;;;;27.30;17.93;;;1.80;99.90;;;;;;5053106;28;20239;-50
2021/12/10 07:12:09;;;;;;;26.00;16.63;;;1.80;99.90;;;;;;5049688;28;20958;-53
2021/12/10 07:14:35;;;;;;;28.00;18.60;;;1.70;99.90;;;;;;5051054;28;20186;-54
2021/12/10 07:17:02;;;;;;;32.55;19.10;;;1.70;99.90;;;;;;5032132;28;20440;-47
2021/12/10 07:19:28;;;;;;;26.25;17.95;;;1.80;99.90;;;;;;5048704;28;20194;-52
2021/12/10 07:21:55;;;;;;;28.50;17.20;;;1.80;99.90;;;;;;5043384;28;20405;-53
2021/12/10 07:24:21;;;;;;;26.48;17.85;;;1.80;99.90;;;;;;5047618;28;20174;-50
2021/12/10 07:26:47;;;;;;;27.38;18.08;;;1.70;99.90;;;;;;5058436;28;20238;-49
2021/12/10 07:29:14;;;;;;;27.80;17.70;;;1.70;99.90;;;;;;5061299;28;20654;-50
2021/12/10 07:31:41;;;;;;;28.33;18.23;;;1.80;99.90;;;;;;5048942;28;20486;-48
2021/12/10 07:34:07;;;;;;;26.17;17.80;;;1.80;99.90;;;;;;5045562;28;20211;-50
2021/12/10 07:36:34;;;;;;;29.13;18.15;;;1.90;99.90;;;;;;5049059;28;20190;-52
2021/12/10 07:39:03;;;;;;;27.10;18.10;;;1.90;99.90;;;;;;5035890;28;20193;-54
2021/12/10 07:41:28;;;;;;;24.10;16.40;;;1.90;99.90;;;;;;5051468;28;20197;-52
2021/12/10 07:43:54;;;;;;;27.50;18.00;;;1.90;99.90;;;;;;5047014;28;20195;-53
2021/12/10 07:46:20;;;;;;;26.90;17.33;;;2.00;99.90;;;;;;5052620;28;20892;-53
2021/12/10 07:48:48;;;;;;;26.37;17.17;;;2.00;99.90;;;;;;5032677;28;20656;-49
2021/12/10 07:51:22;;;;;;;26.48;17.30;;;1.90;99.90;;;;;;5046102;28;20465;-52
2021/12/10 07:53:48;;;;;;;25.80;17.25;;;1.90;99.90;;;;;;5032678;28;20177;-54
2021/12/10 07:56:15;;;;;;;29.50;18.27;;;2.00;99.90;;;;;;5059467;28;20185;-51
2021/12/10 07:58:42;;;;;;;27.55;17.60;;;1.90;99.90;;;;;;5048367;28;20427;-53
2021/12/10 08:01:13;;;;;;;30.73;18.45;;;2.00;99.90;;;;;;5056955;28;20206;-52
2021/12/10 08:03:38;;;;;;;28.08;19.17;;;2.00;99.90;;;;;;5047162;28;20213;-55
2021/12/10 08:06:05;;;;;;;29.80;17.53;;;2.00;99.90;;;;;;5042597;28;21063;-47
2021/12/10 08:08:31;;;;;;;26.02;17.40;;;2.10;99.90;;;;;;5048697;28;20301;-47
2021/12/10 08:10:58;;;;;;;25.27;16.63;;;2.10;99.90;;;;;;5042421;28;20229;-52
2021/12/10 08:13:23;;;;;;;25.75;15.07;;;2.10;99.90;;;;;;5046821;28;20206;-49
2021/12/10 08:15:50;;;;;;;24.90;16.63;;;2.20;99.90;;;;;;5055208;28;20207;-50
2021/12/10 08:18:16;;;;;;;25.58;16.15;;;2.30;99.90;;;;;;5054054;28;20178;-50
2021/12/10 08:20:42;;;;;;;24.10;16.00;;;2.40;99.90;;;;;;5033527;28;20202;-52
2021/12/10 08:23:08;;;;;;;24.57;15.90;;;2.50;99.90;;;;;;5058965;28;20185;-53
2021/12/10 08:25:35;;;;;;;24.67;16.05;;;2.50;99.90;;;;;;5053828;28;20210;-52
2021/12/10 08:28:04;;;;;;;30.33;15.88;;;2.60;99.90;;;;;;5045284;28;20289;-55
2021/12/10 08:30:31;;;;;;;25.67;15.50;;;2.60;99.90;;;;;;5048643;28;20208;-52
2021/12/10 08:32:58;;;;;;;22.75;15.98;;;2.70;99.90;;;;;;5047828;28;21050;-50
2021/12/10 08:35:29;;;;;;;21.80;14.90;;;2.70;99.90;;;;;;5051776;28;20186;-51
2021/12/10 08:37:57;;;;;;;22.42;15.00;;;2.80;99.90;;;;;;5059320;28;20246;-54
2021/12/10 08:40:26;;;;;;;22.80;13.35;;;2.90;99.90;;;;;;5059088;28;20210;-49
2021/12/10 08:42:53;;;;;;;23.63;14.80;;;2.90;99.90;;;;;;5058331;28;20191;-50
2021/12/10 08:45:20;;;;;;;22.83;14.48;;;2.90;99.90;;;;;;5051722;28;20174;-50
2021/12/10 08:47:47;;;;;;;19.60;14.40;;;3.00;99.90;;;;;;5060930;28;20174;-48
2021/12/10 08:50:16;;;;;;;24.10;14.98;;;3.10;99.90;;;;;;5056740;28;20225;-51
2021/12/10 08:52:42;;;;;;;22.55;15.13;;;3.20;99.90;;;;;;5051195;28;20553;-49
2021/12/10 08:55:10;;;;;;;21.20;13.88;;;3.20;99.90;;;;;;5053479;28;20261;-49
2021/12/10 08:57:35;;;;;;;23.92;14.27;;;3.30;99.90;;;;;;5053470;28;20663;-50
2021/12/10 09:00:02;;;;;;;21.50;14.80;;;3.30;99.90;;;;;;5050786;28;20174;-48
2021/12/10 09:02:28;;;;;;;23.83;14.70;;;3.40;99.90;;;;;;5059700;28;20186;-48
2021/12/10 09:04:53;;;;;;;24.73;15.30;;;3.40;99.90;;;;;;5051048;28;20248;-51
2021/12/10 09:07:19;;;;;;;25.63;15.90;;;3.30;99.90;;;;;;5054771;28;20245;-54
2021/12/10 09:09:46;;;;;;;24.57;14.77;;;3.40;99.90;;;;;;5053771;28;20189;-48
2021/12/10 09:12:19;;;;;;;26.13;15.30;;;3.40;99.90;;;;;;5059333;28;20519;-49
2021/12/10 09:14:49;;;;;;;20.73;12.95;;;3.50;99.90;;;;;;5056990;28;20214;-48
2021/12/10 09:17:20;;;;;;;23.33;14.80;;;3.60;99.90;;;;;;5054545;28;20240;-50
2021/12/10 09:19:46;;;;;;;27.27;16.38;;;3.70;99.90;;;;;;5063529;28;20264;-52
2021/12/10 09:22:12;;;;;;;27.30;15.88;;;3.70;99.90;;;;;;5035381;28;20217;-48
2021/12/10 09:24:40;;;;;;;23.30;15.50;;;3.70;99.90;;;;;;5048529;28;20178;-51
2021/12/10 09:27:06;;;;;;;23.77;14.70;;;3.60;99.90;;;;;;5045066;28;20708;-49
2021/12/10 09:29:37;;;;;;;23.73;15.27;;;3.70;99.90;;;;;;5049855;28;20179;-51
2021/12/10 09:32:06;;;;;;;25.20;15.15;;;3.80;99.90;;;;;;5051504;28;20197;-48
2021/12/10 09:34:32;;;;;;;24.88;15.77;;;3.80;99.90;;;;;;5046521;28;20248;-52
2021/12/10 09:36:58;;;;;;;23.40;15.87;;;3.80;99.90;;;;;;5047630;28;20248;-52
2021/12/10 09:39:24;;;;;;;27.10;15.17;;;3.90;99.90;;;;;;5049146;28;20178;-51
2021/12/10 09:41:52;;;;;;;25.30;16.90;;;4.00;99.90;;;;;;5048868;28;20460;-53
2021/12/10 09:44:18;;;;;;;23.48;15.75;;;4.00;99.90;;;;;;5049415;28;20232;-53
2021/12/10 09:46:44;;;;;;;24.23;15.20;;;4.10;99.90;;;;;;5038573;28;20178;-51
2021/12/10 09:49:11;;;;;;;23.35;14.60;;;4.10;99.90;;;;;;5050571;28;20525;-54
2021/12/10 09:51:43;;;;;;;24.05;16.48;;;4.10;99.90;;;;;;5058063;28;20654;-52
2021/12/10 09:54:13;;;;;;;21.75;14.05;;;4.10;99.90;;;;;;5043976;28;20197;-53
2021/12/10 09:56:49;;;;;;;21.52;14.48;;;4.20;99.90;;;;;;5023321;28;20195;-55
2021/12/10 09:59:16;;;;;;;19.58;13.98;;;4.40;99.90;;;;;;5041614;28;20182;-53
2021/12/10 10:01:45;;;;;;;24.13;14.23;;;4.40;99.90;;;;;;5048084;28;20213;-49
2021/12/10 10:04:17;;;;;;;20.70;13.43;;;4.50;99.90;;;;;;5049111;28;20785;-52
2021/12/10 10:06:56;;;;;;;19.77;13.95;;;4.60;99.90;;;;;;5047337;28;20591;-50
2021/12/10 10:09:22;;;;;;;21.33;13.95;;;4.60;99.90;;;;;;5048407;28;20179;-51
2021/12/10 10:11:53;;;;;;;19.48;13.00;;;4.70;99.90;;;;;;5050890;28;20204;-51
2021/12/10 10:14:19;;;;;;;16.70;12.75;;;4.80;99.90;;;;;;5048089;28;20175;-53
2021/12/10 10:16:45;;;;;;;20.13;13.10;;;4.80;99.90;;;;;;5048327;28;20191;-52
2021/12/10 10:19:13;;;;;;;17.53;12.17;;;4.80;99.90;;;;;;5030593;28;20494;-57
2021/12/10 10:21:43;;;;;;;17.00;12.93;;;4.70;99.90;;;;;;5048206;28;20514;-50
2021/12/10 10:24:10;;;;;;;19.73;12.85;;;4.70;99.90;;;;;;5048619;28;20205;-51
2021/12/10 10:27:01;;;;;;;16.95;11.65;;;4.80;99.90;;;;;;5030005;28;20508;-54
2021/12/10 10:29:32;;;;;;;16.35;10.93;;;4.80;99.90;;;;;;5050116;28;20175;-53
2021/12/10 10:32:08;;;;;;;16.75;11.15;;;4.90;99.90;;;;;;5048194;28;20239;-51
2021/12/10 10:34:36;;;;;;;14.95;11.30;;;4.90;99.90;;;;;;5048095;28;20182;-47
2021/12/10 10:37:02;;;;;;;14.93;11.15;;;5.10;99.90;;;;;;5047903;28;20261;-48
2021/12/10 10:39:34;;;;;;;17.60;11.35;;;5.10;99.90;;;;;;5047764;28;20586;-49
2021/12/10 10:42:02;;;;;;;18.20;11.63;;;5.10;99.90;;;;;;5045847;28;20202;-50
2021/12/10 10:44:27;;;;;;;16.70;11.10;;;5.30;99.90;;;;;;5048126;28;20652;-50
2021/12/10 10:46:56;;;;;;;17.33;11.63;;;5.30;99.90;;;;;;5047637;28;20192;-49
2021/12/10 10:49:31;;;;;;;14.35;10.88;;;5.50;99.90;;;;;;5047782;28;20919;-50
2021/12/10 10:51:56;;;;;;;15.80;10.27;;;5.70;99.90;;;;;;5047774;28;20197;-50
2021/12/10 10:54:30;;;;;;;15.50;9.77;;;5.80;99.90;;;;;;5047966;28;20178;-51
2021/12/10 10:56:56;;;;;;;14.35;11.05;;;5.80;99.90;;;;;;5056697;28;20174;-56
2021/12/10 10:59:26;;;;;;;17.58;12.30;;;5.70;99.90;;;;;;5046090;28;20182;-52
2021/12/10 11:02:05;;;;;;;14.98;10.50;;;5.90;99.90;;;;;;5041217;28;20287;-56
2021/12/10 11:04:40;;;;;;;16.15;11.55;;;6.00;99.90;;;;;;5044884;28;20623;-51
2021/12/10 11:07:20;;;;;;;14.90;10.65;;;6.20;99.90;;;;;;5046250;28;20236;-51
2021/12/10 11:10:06;;;;;;;17.25;11.20;;;6.20;99.90;;;;;;5048601;28;20181;-53
2021/12/10 11:12:35;;;;;;;16.92;11.43;;;6.10;99.90;;;;;;5044697;28;20695;-53
2021/12/10 11:15:07;;;;;;;15.85;11.45;;;6.30;99.90;;;;;;5046859;28;20592;-54
2021/12/10 11:17:53;;;;;;;16.40;11.25;;;6.30;99.90;;;;;;5046991;28;20687;-50
2021/12/10 11:20:33;;;;;;;17.30;11.35;;;6.40;99.90;;;;;;5041552;28;20255;-54
2021/12/10 11:23:03;;;;;;;18.37;12.27;;;6.50;99.90;;;;;;5047482;28;20174;-56
2021/12/10 11:25:37;;;;;;;17.03;11.17;;;6.60;99.90;;;;;;5046230;28;20443;-52
2021/12/10 11:28:11;;;;;;;15.50;10.20;;;6.80;99.90;;;;;;5048721;28;20425;-51
2021/12/10 11:30:45;;;;;;;15.47;11.20;;;6.90;99.90;;;;;;5052653;28;20469;-51
2021/12/10 11:33:22;;;;;;;15.30;10.37;;;7.00;99.90;;;;;;5046325;28;20558;-54
2021/12/10 11:35:53;;;;;;;18.97;11.50;;;7.10;99.90;;;;;;5048182;28;20473;-51
2021/12/10 11:38:19;;;;;;;16.03;10.27;;;6.90;99.90;;;;;;5055544;28;20439;-49
2021/12/10 11:40:49;;;;;;;16.93;11.23;;;6.70;99.90;;;;;;5043044;28;20464;-49
2021/12/10 11:43:44;;;;;;;17.30;11.13;;;6.80;99.90;;;;;;5052209;28;20959;-54
2021/12/10 11:46:30;;;;;;;16.80;12.00;;;6.70;99.90;;;;;;5037443;28;20459;-53
2021/12/10 11:49:07;;;;;;;17.50;12.00;;;6.90;99.90;;;;;;5046843;28;20504;-49
2021/12/10 11:51:43;;;;;;;15.63;11.87;;;7.10;99.90;;;;;;5045829;28;20468;-50
2021/12/10 11:54:24;;;;;;;18.60;13.10;;;7.40;99.90;;;;;;5046356;28;20502;-53
2021/12/10 11:57:00;;;;;;;17.80;12.97;;;7.40;99.90;;;;;;5045467;28;20427;-52
2021/12/10 11:59:32;;;;;;;17.47;12.43;;;7.10;99.90;;;;;;5034005;28;20490;-51
2021/12/10 12:02:13;;;;;;;20.20;13.07;;;6.90;99.90;;;;;;5059619;28;20448;-54
2021/12/10 12:04:47;;;;;;;16.97;13.67;;;6.70;99.90;;;;;;5057115;28;21131;-52
2021/12/10 12:07:22;;;;;;;18.03;13.57;;;6.70;99.90;;;;;;5056241;28;20488;-52
2021/12/10 12:09:55;;;;;;;20.03;13.50;;;6.80;99.90;;;;;;5059152;28;20415;-51
2021/12/10 12:12:25;;;;;;;18.03;13.17;;;7.10;99.90;;;;;;5057309;28;20452;-54
2021/12/10 12:14:54;;;;;;;18.50;13.57;;;7.40;99.90;;;;;;5061017;28;20486;-53
2021/12/10 12:17:33;;;;;;;20.03;13.83;;;7.80;99.90;;;;;;5060276;28;20440;-50
2021/12/10 12:19:59;;;;;;;18.30;13.70;;;8.10;99.90;;;;;;5056681;28;20756;-50
2021/12/10 12:24:56;;;;;;;17.13;12.80;;;8.60;99.90;;;;;;5059480;28;20460;-49
2021/12/10 12:25:32;;;;;;;17.33;12.67;;;9.00;99.90;;;;;;5058235;28;20458;-47
2021/12/10 12:28:12;;;;;;;15.17;12.20;;;9.40;99.90;;;;;;5056458;28;20419;-48
2021/12/10 12:31:14;;;;;;;15.20;11.87;;;9.50;99.60;;;;;;5057495;28;20442;-48
2021/12/10 12:34:14;;;;;;;15.10;12.10;;;9.70;99.30;;;;;;5043444;28;20473;-51
2021/12/10 12:36:51;;;;;;;14.17;11.43;;;10.40;97.10;;;;;;5061954;28;20420;-49
2021/12/10 12:39:50;;;;;;;15.13;11.67;;;10.00;95.40;;;;;;5058217;28;20519;-49
2021/12/10 12:42:27;;;;;;;14.67;12.73;;;9.70;96.80;;;;;;5039480;28;20568;-49
2021/12/10 12:44:59;;;;;;;16.80;11.90;;;10.10;97.10;;;;;;5053468;28;20460;-53
2021/12/10 12:47:33;;;;;;;12.53;11.23;;;10.30;95.80;;;;;;5057130;28;20431;-52
2021/12/10 12:50:20;;;;;;;14.00;11.90;;;10.00;96.20;;;;;;5059239;28;20493;-52
2021/12/10 12:52:53;;;;;;;12.93;11.27;;;9.90;96.90;;;;;;5052219;28;20439;-49
2021/12/10 12:55:22;;;;;;;14.60;12.07;;;10.00;95.80;;;;;;5050074;28;21132;-50
2021/12/10 12:58:12;;;;;;;16.10;12.33;;;9.80;96.50;;;;;;5049316;28;20433;-49